Search for the current weather situation

Metar

Metar
TNCC 120900Z AUTO 12010KT 9999 BKN044 26/22 Q1015 NOSIG
Decoded Metar

TAF

TAF
TNCC 120900Z AUTO 12010KT 9999 BKN044 26/22 Q1015 NOSIG
Decoded TAF
Top